sensor_id;sensor_type;location;lat;lon;timestamp;pressure;altitude;pressure_sealevel;temperature;humidity
51452;BME280;37521;52.020;-1.740;2022-09-27T00:00:02;98804.97;;;6.57;100.00
51452;BME280;37521;52.020;-1.740;2022-09-27T00:02:39;98789.31;;;6.55;100.00
51452;BME280;37521;52.020;-1.740;2022-09-27T00:05:07;98797.31;;;6.52;100.00
51452;BME280;37521;52.020;-1.740;2022-09-27T00:07:36;98796.63;;;6.49;100.00
51452;BME280;37521;52.020;-1.740;2022-09-27T00:10:04;98787.22;;;6.45;100.00
51452;BME280;37521;52.020;-1.740;2022-09-27T00:12:34;98786.44;;;6.43;100.00
51452;BME280;37521;52.020;-1.740;2022-09-27T00:15:04;98791.53;;;6.46;100.00
51452;BME280;37521;52.020;-1.740;2022-09-27T00:17:32;98792.38;;;6.46;100.00
51452;BME280;37521;52.020;-1.740;2022-09-27T00:20:05;98792.38;;;6.46;100.00
51452;BME280;37521;52.020;-1.740;2022-09-27T00:22:34;98805.56;;;6.45;100.00
51452;BME280;37521;52.020;-1.740;2022-09-27T00:25:03;98790.66;;;6.45;100.00
51452;BME280;37521;52.020;-1.740;2022-09-27T00:27:33;98795.06;;;6.45;100.00
51452;BME280;37521;52.020;-1.740;2022-09-27T00:30:01;98794.16;;;6.46;100.00
51452;BME280;37521;52.020;-1.740;2022-09-27T00:32:30;98793.28;;;6.45;100.00
51452;BME280;37521;52.020;-1.740;2022-09-27T00:34:58;98788.22;;;6.42;100.00
51452;BME280;37521;52.020;-1.740;2022-09-27T00:37:28;98784.81;;;6.40;100.00
51452;BME280;37521;52.020;-1.740;2022-09-27T00:39:57;98787.72;;;6.34;100.00
51452;BME280;37521;52.020;-1.740;2022-09-27T00:42:25;98793.25;;;6.28;100.00
51452;BME280;37521;52.020;-1.740;2022-09-27T00:45:18;98798.66;;;6.25;100.00
51452;BME280;37521;52.020;-1.740;2022-09-27T00:47:53;98789.88;;;6.26;100.00
51452;BME280;37521;52.020;-1.740;2022-09-27T00:50:27;98786.31;;;6.27;100.00
51452;BME280;37521;52.020;-1.740;2022-09-27T00:53:06;98796.88;;;6.25;100.00
51452;BME280;37521;52.020;-1.740;2022-09-27T00:55:38;98798.75;;;6.23;100.00
51452;BME280;37521;52.020;-1.740;2022-09-27T00:58:08;98803.59;;;6.31;100.00
51452;BME280;37521;52.020;-1.740;2022-09-27T01:00:43;98798.19;;;6.34;100.00
51452;BME280;37521;52.020;-1.740;2022-09-27T01:03:14;98784.88;;;6.39;100.00
51452;BME280;37521;52.020;-1.740;2022-09-27T01:05:44;98788.13;;;6.44;100.00
51452;BME280;37521;52.020;-1.740;2022-09-27T01:08:14;98783.66;;;6.46;100.00
51452;BME280;37521;52.020;-1.740;2022-09-27T01:10:50;98790.66;;;6.45;100.00
51452;BME280;37521;52.020;-1.740;2022-09-27T01:13:43;98788.97;;;6.44;100.00
51452;BME280;37521;52.020;-1.740;2022-09-27T01:16:39;98783.75;;;6.44;100.00
51452;BME280;37521;52.020;-1.740;2022-09-27T01:19:24;98780.19;;;6.45;100.00
51452;BME280;37521;52.020;-1.740;2022-09-27T01:22:01;98785.25;;;6.48;100.00
51452;BME280;37521;52.020;-1.740;2022-09-27T01:27:54;98779.25;;;6.46;100.00
51452;BME280;37521;52.020;-1.740;2022-09-27T01:30:39;98785.44;;;6.45;100.00
51452;BME280;37521;52.020;-1.740;2022-09-27T01:33:17;98778.41;;;6.46;100.00
51452;BME280;37521;52.020;-1.740;2022-09-27T01:36:03;98769.47;;;6.50;100.00
51452;BME280;37521;52.020;-1.740;2022-09-27T01:38:39;98782.34;;;6.54;100.00
51452;BME280;37521;52.020;-1.740;2022-09-27T01:41:19;98774.34;;;6.58;100.00
51452;BME280;37521;52.020;-1.740;2022-09-27T01:44:14;98775.72;;;6.65;100.00
51452;BME280;37521;52.020;-1.740;2022-09-27T01:46:54;98774.50;;;6.72;100.00
51452;BME280;37521;52.020;-1.740;2022-09-27T01:49:39;98779.56;;;6.75;100.00
51452;BME280;37521;52.020;-1.740;2022-09-27T01:52:10;98768.19;;;6.76;100.00
51452;BME280;37521;52.020;-1.740;2022-09-27T01:54:45;98776.72;;;6.79;100.00
51452;BME280;37521;52.020;-1.740;2022-09-27T01:57:29;98780.06;;;6.83;100.00
51452;BME280;37521;52.020;-1.740;2022-09-27T02:00:03;98774.88;;;6.81;100.00
51452;BME280;37521;52.020;-1.740;2022-09-27T02:02:49;98770.56;;;6.80;100.00
51452;BME280;37521;52.020;-1.740;2022-09-27T02:05:42;98777.66;;;6.78;100.00
51452;BME280;37521;52.020;-1.740;2022-09-27T02:08:42;98775.88;;;6.79;100.00
51452;BME280;37521;52.020;-1.740;2022-09-27T02:11:27;98776.81;;;6.78;100.00
51452;BME280;37521;52.020;-1.740;2022-09-27T02:14:12;98769.25;;;6.72;100.00
51452;BME280;37521;52.020;-1.740;2022-09-27T02:16:49;98778.19;;;6.68;100.00
51452;BME280;37521;52.020;-1.740;2022-09-27T02:19:39;98768.63;;;6.67;100.00
51452;BME280;37521;52.020;-1.740;2022-09-27T02:22:15;98771.16;;;6.68;100.00
51452;BME280;37521;52.020;-1.740;2022-09-27T02:24:48;98770.47;;;6.65;100.00
51452;BME280;37521;52.020;-1.740;2022-09-27T02:27:23;98762.84;;;6.60;100.00
51452;BME280;37521;52.020;-1.740;2022-09-27T02:29:57;98752.44;;;6.59;100.00
51452;BME280;37521;52.020;-1.740;2022-09-27T02:32:30;98755.22;;;6.55;100.00
51452;BME280;37521;52.020;-1.740;2022-09-27T02:35:03;98743.00;;;6.54;100.00
51452;BME280;37521;52.020;-1.740;2022-09-27T02:37:33;98743.00;;;6.54;100.00
51452;BME280;37521;52.020;-1.740;2022-09-27T02:40:02;98743.81;;;6.57;100.00
51452;BME280;37521;52.020;-1.740;2022-09-27T02:42:32;98741.19;;;6.57;100.00
51452;BME280;37521;52.020;-1.740;2022-09-27T02:45:03;98731.44;;;6.59;100.00
51452;BME280;37521;52.020;-1.740;2022-09-27T02:47:44;98721.03;;;6.57;100.00
51452;BME280;37521;52.020;-1.740;2022-09-27T02:50:39;98727.56;;;6.48;100.00
51452;BME280;37521;52.020;-1.740;2022-09-27T02:53:37;98728.69;;;6.44;100.00
51452;BME280;37521;52.020;-1.740;2022-09-27T02:56:37;98729.75;;;6.40;100.00
51452;BME280;37521;52.020;-1.740;2022-09-27T02:59:32;98736.00;;;6.38;100.00
51452;BME280;37521;52.020;-1.740;2022-09-27T03:02:27;98736.97;;;6.35;100.00
51452;BME280;37521;52.020;-1.740;2022-09-27T03:05:21;98724.66;;;6.37;100.00
51452;BME280;37521;52.020;-1.740;2022-09-27T03:08:11;98727.91;;;6.42;100.00
51452;BME280;37521;52.020;-1.740;2022-09-27T03:10:40;98719.88;;;6.45;100.00
51452;BME280;37521;52.020;-1.740;2022-09-27T03:13:08;98718.09;;;6.46;100.00
51452;BME280;37521;52.020;-1.740;2022-09-27T03:15:36;98718.94;;;6.46;100.00
51452;BME280;37521;52.020;-1.740;2022-09-27T03:18:05;98718.94;;;6.46;100.00
51452;BME280;37521;52.020;-1.740;2022-09-27T03:20:52;98716.25;;;6.48;100.00
51452;BME280;37521;52.020;-1.740;2022-09-27T03:23:24;98717.09;;;6.48;100.00
51452;BME280;37521;52.020;-1.740;2022-09-27T03:25:53;98721.50;;;6.48;100.00
51452;BME280;37521;52.020;-1.740;2022-09-27T03:28:22;98718.94;;;6.46;100.00
51452;BME280;37521;52.020;-1.740;2022-09-27T03:30:51;98718.09;;;6.46;100.00
51452;BME280;37521;52.020;-1.740;2022-09-27T03:33:38;98724.38;;;6.43;100.00
51452;BME280;37521;52.020;-1.740;2022-09-27T03:36:09;98714.84;;;6.41;100.00
51452;BME280;37521;52.020;-1.740;2022-09-27T03:38:40;98716.72;;;6.39;100.00
51452;BME280;37521;52.020;-1.740;2022-09-27T03:41:12;98723.88;;;6.35;100.00
51452;BME280;37521;52.020;-1.740;2022-09-27T03:43:40;98713.47;;;6.34;100.00
51452;BME280;37521;52.020;-1.740;2022-09-27T03:46:09;98715.31;;;6.32;100.00
51452;BME280;37521;52.020;-1.740;2022-09-27T03:48:38;98712.63;;;6.33;100.00
51452;BME280;37521;52.020;-1.740;2022-09-27T03:51:08;98703.81;;;6.34;100.00
51452;BME280;37521;52.020;-1.740;2022-09-27T03:53:39;98707.38;;;6.33;100.00
51452;BME280;37521;52.020;-1.740;2022-09-27T03:56:10;98701.38;;;6.31;100.00
51452;BME280;37521;52.020;-1.740;2022-09-27T03:58:38;98701.38;;;6.31;100.00
51452;BME280;37521;52.020;-1.740;2022-09-27T04:01:07;98704.06;;;6.30;100.00
51452;BME280;37521;52.020;-1.740;2022-09-27T04:03:37;98709.38;;;6.28;100.00
51452;BME280;37521;52.020;-1.740;2022-09-27T04:06:23;98694.56;;;6.27;100.00
51452;BME280;37521;52.020;-1.740;2022-09-27T04:08:54;98706.00;;;6.26;100.00
51452;BME280;37521;52.020;-1.740;2022-09-27T04:11:31;98699.97;;;6.24;100.00
51452;BME280;37521;52.020;-1.740;2022-09-27T04:14:00;98689.63;;;6.21;100.00
51452;BME280;37521;52.020;-1.740;2022-09-27T04:16:38;98691.41;;;6.20;100.00
51452;BME280;37521;52.020;-1.740;2022-09-27T04:19:25;98694.28;;;6.16;100.00
51452;BME280;37521;52.020;-1.740;2022-09-27T04:22:05;98686.41;;;6.16;100.00
51452;BME280;37521;52.020;-1.740;2022-09-27T04:24:35;98680.09;;;6.20;100.00
51452;BME280;37521;52.020;-1.740;2022-09-27T04:27:16;98680.16;;;6.18;100.00
51452;BME280;37521;52.020;-1.740;2022-09-27T04:29:48;98680.94;;;6.20;100.00
51452;BME280;37521;52.020;-1.740;2022-09-27T04:32:40;98683.50;;;6.22;100.00
51452;BME280;37521;52.020;-1.740;2022-09-27T04:35:27;98672.84;;;6.25;100.00
51452;BME280;37521;52.020;-1.740;2022-09-27T04:38:13;98674.41;;;6.29;100.00
51452;BME280;37521;52.020;-1.740;2022-09-27T04:40:43;98662.19;;;6.28;100.00
51452;BME280;37521;52.020;-1.740;2022-09-27T04:43:11;98664.13;;;6.24;100.00
51452;BME280;37521;52.020;-1.740;2022-09-27T04:45:42;98666.03;;;6.21;100.00
51452;BME280;37521;52.020;-1.740;2022-09-27T04:48:11;98663.50;;;6.19;100.00
51452;BME280;37521;52.020;-1.740;2022-09-27T04:50:39;98660.81;;;6.21;100.00
51452;BME280;37521;52.020;-1.740;2022-09-27T04:53:12;98650.19;;;6.24;100.00
51452;BME280;37521;52.020;-1.740;2022-09-27T04:55:45;98657.03;;;6.26;100.00
51452;BME280;37521;52.020;-1.740;2022-09-27T04:58:13;98656.94;;;6.28;100.00
51452;BME280;37521;52.020;-1.740;2022-09-27T05:00:41;98651.56;;;6.31;100.00
51452;BME280;37521;52.020;-1.740;2022-09-27T05:03:31;98655.88;;;6.32;100.00
51452;BME280;37521;52.020;-1.740;2022-09-27T05:06:08;98657.50;;;6.35;100.00
51452;BME280;37521;52.020;-1.740;2022-09-27T05:08:37;98653.97;;;6.36;100.00
51452;BME280;37521;52.020;-1.740;2022-09-27T05:11:32;98653.03;;;6.37;100.00
51452;BME280;37521;52.020;-1.740;2022-09-27T05:14:24;98651.25;;;6.37;100.00
51452;BME280;37521;52.020;-1.740;2022-09-27T05:17:05;98650.31;;;6.38;100.00
51452;BME280;37521;52.020;-1.740;2022-09-27T05:19:55;98653.88;;;6.37;100.00
51452;BME280;37521;52.020;-1.740;2022-09-27T05:22:32;98652.94;;;6.38;100.00
51452;BME280;37521;52.020;-1.740;2022-09-27T05:25:00;98652.94;;;6.38;100.00
51452;BME280;37521;52.020;-1.740;2022-09-27T05:27:30;98659.03;;;6.39;100.00
51452;BME280;37521;52.020;-1.740;2022-09-27T05:29:58;98649.41;;;6.39;100.00
51452;BME280;37521;52.020;-1.740;2022-09-27T05:32:38;98662.59;;;6.38;100.00
51452;BME280;37521;52.020;-1.740;2022-09-27T05:35:26;98651.19;;;6.39;100.00
51452;BME280;37521;52.020;-1.740;2022-09-27T05:37:58;98647.72;;;6.38;100.00
51452;BME280;37521;52.020;-1.740;2022-09-27T05:40:30;98639.94;;;6.37;100.00
51452;BME280;37521;52.020;-1.740;2022-09-27T05:43:10;98639.09;;;6.36;100.00
51452;BME280;37521;52.020;-1.740;2022-09-27T05:45:39;98630.44;;;6.34;100.00
51452;BME280;37521;52.020;-1.740;2022-09-27T05:48:08;98630.44;;;6.34;100.00
51452;BME280;37521;52.020;-1.740;2022-09-27T05:50:44;98626.19;;;6.32;100.00
51452;BME280;37521;52.020;-1.740;2022-09-27T05:53:13;98616.72;;;6.29;100.00
51452;BME280;37521;52.020;-1.740;2022-09-27T05:55:42;98615.00;;;6.28;100.00
51452;BME280;37521;52.020;-1.740;2022-09-27T05:58:13;98618.56;;;6.27;100.00
51452;BME280;37521;52.020;-1.740;2022-09-27T06:00:46;98627.22;;;6.29;100.00
51452;BME280;37521;52.020;-1.740;2022-09-27T06:03:37;98623.66;;;6.30;100.00
51452;BME280;37521;52.020;-1.740;2022-09-27T06:06:25;98627.91;;;6.33;100.00
51452;BME280;37521;52.020;-1.740;2022-09-27T06:08:56;98626.72;;;6.38;100.00
51452;BME280;37521;52.020;-1.740;2022-09-27T06:11:26;98622.97;;;6.44;100.00
51452;BME280;37521;52.020;-1.740;2022-09-27T06:13:56;98621.63;;;6.52;100.00
51452;BME280;37521;52.020;-1.740;2022-09-27T06:16:26;98615.88;;;6.62;100.00
51452;BME280;37521;52.020;-1.740;2022-09-27T06:18:54;98615.56;;;6.68;100.00
51452;BME280;37521;52.020;-1.740;2022-09-27T06:21:24;98598.94;;;6.69;100.00
51452;BME280;37521;52.020;-1.740;2022-09-27T06:26:45;98600.44;;;6.73;100.00
51452;BME280;37521;52.020;-1.740;2022-09-27T06:29:23;98595.19;;;6.73;100.00
51452;BME280;37521;52.020;-1.740;2022-09-27T06:31:57;98587.19;;;6.76;100.00
51452;BME280;37521;52.020;-1.740;2022-09-27T06:34:40;98586.16;;;6.78;100.00
51452;BME280;37521;52.020;-1.740;2022-09-27T06:37:08;98591.22;;;6.81;100.00
51452;BME280;37521;52.020;-1.740;2022-09-27T06:39:38;98577.13;;;6.84;100.00
51452;BME280;37521;52.020;-1.740;2022-09-27T06:42:26;98579.41;;;6.90;100.00
51452;BME280;37521;52.020;-1.740;2022-09-27T06:45:14;98566.09;;;6.93;100.00
51452;BME280;37521;52.020;-1.740;2022-09-27T06:48:10;98575.63;;;6.96;100.00
51452;BME280;37521;52.020;-1.740;2022-09-27T06:50:46;98566.81;;;6.97;100.00
51452;BME280;37521;52.020;-1.740;2022-09-27T06:53:16;98569.44;;;6.97;100.00
51452;BME280;37521;52.020;-1.740;2022-09-27T06:55:44;98577.44;;;6.94;100.00
51452;BME280;37521;52.020;-1.740;2022-09-27T06:58:13;98563.72;;;6.89;100.00
51452;BME280;37521;52.020;-1.740;2022-09-27T07:01:18;98574.59;;;6.82;100.00
51452;BME280;37521;52.020;-1.740;2022-09-27T07:04:05;98577.25;;;6.81;100.00
51452;BME280;37521;52.020;-1.740;2022-09-27T07:06:42;98570.31;;;6.80;100.00
51452;BME280;37521;52.020;-1.740;2022-09-27T07:09:18;98570.50;;;6.77;100.00
51452;BME280;37521;52.020;-1.740;2022-09-27T07:11:46;98560.16;;;6.74;100.00
51452;BME280;37521;52.020;-1.740;2022-09-27T07:14:15;98560.34;;;6.71;100.00
51452;BME280;37521;52.020;-1.740;2022-09-27T07:16:45;98563.19;;;6.66;100.00
51452;BME280;37521;52.020;-1.740;2022-09-27T07:19:13;98551.72;;;6.69;100.00
51452;BME280;37521;52.020;-1.740;2022-09-27T07:21:46;98544.41;;;6.74;100.00
51452;BME280;37521;52.020;-1.740;2022-09-27T07:24:14;98549.19;;;6.83;100.00
51452;BME280;37521;52.020;-1.740;2022-09-27T07:26:47;98542.25;;;6.98;100.00
51452;BME280;37521;52.020;-1.740;2022-09-27T07:29:20;98541.41;;;7.13;100.00
51452;BME280;37521;52.020;-1.740;2022-09-27T07:31:53;98527.84;;;7.21;100.00
51452;BME280;37521;52.020;-1.740;2022-09-27T07:34:21;98527.09;;;7.19;100.00
51452;BME280;37521;52.020;-1.740;2022-09-27T07:36:50;98528.03;;;7.18;100.00
51452;BME280;37521;52.020;-1.740;2022-09-27T07:39:21;98522.03;;;7.16;100.00
51452;BME280;37521;52.020;-1.740;2022-09-27T07:41:49;98524.66;;;7.16;100.00
51452;BME280;37521;52.020;-1.740;2022-09-27T07:44:18;98531.25;;;7.23;100.00
51452;BME280;37521;52.020;-1.740;2022-09-27T07:47:07;98525.72;;;7.27;100.00
51452;BME280;37521;52.020;-1.740;2022-09-27T07:49:55;98522.50;;;7.38;100.00
51452;BME280;37521;52.020;-1.740;2022-09-27T07:52:39;98522.88;;;7.46;100.00
51452;BME280;37521;52.020;-1.740;2022-09-27T07:55:27;98518.81;;;7.56;100.00
51452;BME280;37521;52.020;-1.740;2022-09-27T07:58:02;98524.84;;;7.73;100.00
51452;BME280;37521;52.020;-1.740;2022-09-27T08:00:31;98525.72;;;7.87;100.00
51452;BME280;37521;52.020;-1.740;2022-09-27T08:03:04;98531.31;;;8.11;100.00
51452;BME280;37521;52.020;-1.740;2022-09-27T08:05:34;98526.81;;;8.28;100.00
51452;BME280;37521;52.020;-1.740;2022-09-27T08:08:03;98525.47;;;8.36;100.00
51452;BME280;37521;52.020;-1.740;2022-09-27T08:10:32;98535.06;;;8.37;100.00
51452;BME280;37521;52.020;-1.740;2022-09-27T08:13:03;98523.50;;;8.40;100.00
51452;BME280;37521;52.020;-1.740;2022-09-27T08:15:33;98523.84;;;8.48;100.00
51452;BME280;37521;52.020;-1.740;2022-09-27T08:18:07;98533.72;;;8.59;100.00
51452;BME280;37521;52.020;-1.740;2022-09-27T08:20:55;98530.06;;;8.61;100.00
51452;BME280;37521;52.020;-1.740;2022-09-27T08:23:44;98533.06;;;8.55;100.00
51452;BME280;37521;52.020;-1.740;2022-09-27T08:26:17;98540.78;;;8.58;100.00
51452;BME280;37521;52.020;-1.740;2022-09-27T08:28:56;98535.97;;;8.65;100.00
51452;BME280;37521;52.020;-1.740;2022-09-27T08:31:27;98545.28;;;8.70;100.00
51452;BME280;37521;52.020;-1.740;2022-09-27T08:33:57;98539.91;;;8.72;100.00
51452;BME280;37521;52.020;-1.740;2022-09-27T08:36:25;98539.25;;;8.68;100.00
51452;BME280;37521;52.020;-1.740;2022-09-27T08:38:54;98538.88;;;8.60;100.00
51452;BME280;37521;52.020;-1.740;2022-09-27T08:41:35;98535.69;;;8.55;100.00
51452;BME280;37521;52.020;-1.740;2022-09-27T08:44:12;98540.78;;;8.58;100.00
51452;BME280;37521;52.020;-1.740;2022-09-27T08:47:03;98538.97;;;8.73;100.00
51452;BME280;37521;52.020;-1.740;2022-09-27T08:49:38;98535.88;;;8.81;100.00
51452;BME280;37521;52.020;-1.740;2022-09-27T08:52:14;98537.16;;;8.88;100.00
51452;BME280;37521;52.020;-1.740;2022-09-27T08:54:46;98543.00;;;8.93;100.00
51452;BME280;37521;52.020;-1.740;2022-09-27T08:57:15;98536.78;;;8.94;100.00
51452;BME280;37521;52.020;-1.740;2022-09-27T08:59:49;98536.69;;;8.95;100.00
51452;BME280;37521;52.020;-1.740;2022-09-27T09:02:23;98534.03;;;8.95;100.00
51452;BME280;37521;52.020;-1.740;2022-09-27T09:04:56;98538.47;;;8.95;100.00
51452;BME280;37521;52.020;-1.740;2022-09-27T09:07:45;98531.69;;;9.05;100.00
51452;BME280;37521;52.020;-1.740;2022-09-27T09:10:29;98527.69;;;9.26;100.00
51452;BME280;37521;52.020;-1.740;2022-09-27T09:13:41;98531.94;;;9.42;100.00
51452;BME280;37521;52.020;-1.740;2022-09-27T09:16:19;98526.69;;;9.42;100.00
51452;BME280;37521;52.020;-1.740;2022-09-27T09:19:03;98528.34;;;9.43;100.00
51452;BME280;37521;52.020;-1.740;2022-09-27T09:21:55;98531.38;;;9.51;100.00
51452;BME280;37521;52.020;-1.740;2022-09-27T09:24:34;98526.63;;;9.56;100.00
51452;BME280;37521;52.020;-1.740;2022-09-27T09:27:14;98513.44;;;9.56;100.00
51452;BME280;37521;52.020;-1.740;2022-09-27T09:30:00;98520.22;;;9.60;100.00
51452;BME280;37521;52.020;-1.740;2022-09-27T09:32:43;98519.66;;;9.55;100.00
51452;BME280;37521;52.020;-1.740;2022-09-27T09:35:20;98518.91;;;9.53;100.00
51452;BME280;37521;52.020;-1.740;2022-09-27T09:37:54;98520.59;;;9.54;100.00
51452;BME280;37521;52.020;-1.740;2022-09-27T09:40:26;98508.72;;;9.61;100.00
51452;BME280;37521;52.020;-1.740;2022-09-27T09:43:01;98520.66;;;9.67;100.00
51452;BME280;37521;52.020;-1.740;2022-09-27T09:45:32;98502.09;;;9.68;100.00
51452;BME280;37521;52.020;-1.740;2022-09-27T09:48:04;98521.03;;;9.61;100.00
51452;BME280;37521;52.020;-1.740;2022-09-27T09:50:37;98513.66;;;9.53;100.00
51452;BME280;37521;52.020;-1.740;2022-09-27T09:53:14;98508.59;;;9.50;100.00
51452;BME280;37521;52.020;-1.740;2022-09-27T09:55:49;98500.78;;;9.48;100.00
51452;BME280;37521;52.020;-1.740;2022-09-27T09:58:23;98507.44;;;9.54;100.00
51452;BME280;37521;52.020;-1.740;2022-09-27T10:01:10;98499.13;;;9.60;100.00
51452;BME280;37521;52.020;-1.740;2022-09-27T10:03:41;98503.16;;;9.66;100.00
51452;BME280;37521;52.020;-1.740;2022-09-27T10:06:11;98510.94;;;9.67;100.00
51452;BME280;37521;52.020;-1.740;2022-09-27T10:08:41;98502.84;;;9.70;100.00
51452;BME280;37521;52.020;-1.740;2022-09-27T10:11:23;98497.59;;;9.70;100.00
51452;BME280;37521;52.020;-1.740;2022-09-27T10:14:12;98508.31;;;9.67;100.00
51452;BME280;37521;52.020;-1.740;2022-09-27T10:16:45;98500.81;;;9.61;100.00
51452;BME280;37521;52.020;-1.740;2022-09-27T10:19:19;98507.75;;;9.62;100.00
51452;BME280;37521;52.020;-1.740;2022-09-27T10:21:57;98503.38;;;9.75;100.00
51452;BME280;37521;52.020;-1.740;2022-09-27T10:24:28;98510.16;;;9.92;100.00
51452;BME280;37521;52.020;-1.740;2022-09-27T10:27:05;98505.44;;;10.10;100.00
51452;BME280;37521;52.020;-1.740;2022-09-27T10:29:36;98503.84;;;10.07;100.00
51452;BME280;37521;52.020;-1.740;2022-09-27T10:32:20;98502.13;;;9.94;100.00
51452;BME280;37521;52.020;-1.740;2022-09-27T10:35:31;98500.03;;;9.99;100.00
51452;BME280;37521;52.020;-1.740;2022-09-27T10:38:18;98494.97;;;9.96;100.00
51452;BME280;37521;52.020;-1.740;2022-09-27T10:40:53;98490.75;;;9.93;100.00
51452;BME280;37521;52.020;-1.740;2022-09-27T10:43:25;98483.69;;;10.06;100.00
51452;BME280;37521;52.020;-1.740;2022-09-27T10:46:06;98493.84;;;10.25;100.00
51452;BME280;37521;52.020;-1.740;2022-09-27T10:48:40;98484.69;;;10.31;100.00
51452;BME280;37521;52.020;-1.740;2022-09-27T10:51:22;98478.94;;;10.50;100.00
51452;BME280;37521;52.020;-1.740;2022-09-27T10:53:52;98476.69;;;10.69;100.00
51452;BME280;37521;52.020;-1.740;2022-09-27T10:56:32;98476.06;;;10.66;100.00
51452;BME280;37521;52.020;-1.740;2022-09-27T10:59:01;98471.34;;;10.58;100.00
51452;BME280;37521;52.020;-1.740;2022-09-27T11:01:42;98470.38;;;10.59;100.00
51452;BME280;37521;52.020;-1.740;2022-09-27T11:04:22;98477.66;;;10.55;100.00
51452;BME280;37521;52.020;-1.740;2022-09-27T11:06:51;98478.63;;;10.42;100.00
51452;BME280;37521;52.020;-1.740;2022-09-27T11:09:22;98476.94;;;10.15;100.00
51452;BME280;37521;52.020;-1.740;2022-09-27T11:12:09;98478.91;;;9.73;100.00
51452;BME280;37521;52.020;-1.740;2022-09-27T11:14:40;98483.84;;;9.25;100.00
51452;BME280;37521;52.020;-1.740;2022-09-27T11:17:13;98492.78;;;8.96;100.00
51452;BME280;37521;52.020;-1.740;2022-09-27T11:19:57;98480.25;;;8.72;100.00
51452;BME280;37521;52.020;-1.740;2022-09-27T11:22:47;98482.53;;;8.50;100.00
51452;BME280;37521;52.020;-1.740;2022-09-27T11:25:33;98482.22;;;8.55;100.00
51452;BME280;37521;52.020;-1.740;2022-09-27T11:28:19;98480.97;;;8.74;100.00
51452;BME280;37521;52.020;-1.740;2022-09-27T11:31:00;98484.19;;;8.80;100.00
51452;BME280;37521;52.020;-1.740;2022-09-27T11:33:48;98483.63;;;8.60;100.00
51452;BME280;37521;52.020;-1.740;2022-09-27T11:36:35;98479.34;;;8.45;100.00
51452;BME280;37521;52.020;-1.740;2022-09-27T11:39:12;98479.44;;;8.43;100.00
51452;BME280;37521;52.020;-1.740;2022-09-27T11:41:57;98472.00;;;8.36;100.00
51452;BME280;37521;52.020;-1.740;2022-09-27T11:44:59;98479.72;;;8.39;100.00
51452;BME280;37521;52.020;-1.740;2022-09-27T11:47:59;98462.13;;;8.95;100.00
51452;BME280;37521;52.020;-1.740;2022-09-27T11:50:48;98455.94;;;9.36;100.00
51452;BME280;37521;52.020;-1.740;2022-09-27T11:53:32;98457.94;;;9.85;100.00
51452;BME280;37521;52.020;-1.740;2022-09-27T11:56:13;98456.38;;;10.07;100.00
51452;BME280;37521;52.020;-1.740;2022-09-27T11:58:57;98445.81;;;10.20;100.00
51452;BME280;37521;52.020;-1.740;2022-09-27T12:01:34;98446.25;;;10.14;100.00
51452;BME280;37521;52.020;-1.740;2022-09-27T12:04:24;98446.66;;;10.08;100.00
51452;BME280;37521;52.020;-1.740;2022-09-27T12:07:04;98444.13;;;10.19;100.00
51452;BME280;37521;52.020;-1.740;2022-09-27T12:09:38;98440.56;;;10.70;100.00
51452;BME280;37521;52.020;-1.740;2022-09-27T12:12:12;98434.44;;;11.06;100.00
51452;BME280;37521;52.020;-1.740;2022-09-27T12:14:44;98417.63;;;11.07;100.00
51452;BME280;37521;52.020;-1.740;2022-09-27T12:17:18;98418.91;;;11.25;100.00
51452;BME280;37521;52.020;-1.740;2022-09-27T12:19:52;98418.00;;;11.37;100.00
51452;BME280;37521;52.020;-1.740;2022-09-27T12:22:38;98416.47;;;11.11;100.00
51452;BME280;37521;52.020;-1.740;2022-09-27T12:25:41;98433.00;;;10.65;100.00
51452;BME280;37521;52.020;-1.740;2022-09-27T12:28:25;98433.72;;;10.30;100.00
51452;BME280;37521;52.020;-1.740;2022-09-27T12:31:04;98430.84;;;10.08;100.00
51452;BME280;37521;52.020;-1.740;2022-09-27T12:34:06;98422.63;;;10.00;100.00
51452;BME280;37521;52.020;-1.740;2022-09-27T12:36:48;98420.72;;;10.02;100.00
51452;BME280;37521;52.020;-1.740;2022-09-27T12:39:22;98416.50;;;10.12;100.00
51452;BME280;37521;52.020;-1.740;2022-09-27T12:42:11;98415.44;;;10.15;100.00
51452;BME280;37521;52.020;-1.740;2022-09-27T12:44:45;98402.13;;;10.42;100.00
51452;BME280;37521;52.020;-1.740;2022-09-27T12:47:33;98389.97;;;10.76;100.00
51452;BME280;37521;52.020;-1.740;2022-09-27T12:50:20;98376.25;;;10.83;100.00
51452;BME280;37521;52.020;-1.740;2022-09-27T12:52:54;98367.44;;;10.83;100.00
51452;BME280;37521;52.020;-1.740;2022-09-27T12:55:31;98373.75;;;10.69;100.00
51452;BME280;37521;52.020;-1.740;2022-09-27T12:58:23;98368.41;;;10.58;100.00
51452;BME280;37521;52.020;-1.740;2022-09-27T13:00:58;98363.22;;;10.56;100.00
51452;BME280;37521;52.020;-1.740;2022-09-27T13:03:46;98351.44;;;10.97;100.00
51452;BME280;37521;52.020;-1.740;2022-09-27T13:06:37;98355.38;;;12.40;100.00
51452;BME280;37521;52.020;-1.740;2022-09-27T13:09:26;98350.00;;;13.06;100.00
51452;BME280;37521;52.020;-1.740;2022-09-27T13:12:02;98346.38;;;12.75;100.00
51452;BME280;37521;52.020;-1.740;2022-09-27T13:14:43;98349.00;;;12.32;100.00
51452;BME280;37521;52.020;-1.740;2022-09-27T13:17:31;98357.50;;;11.68;100.00
51452;BME280;37521;52.020;-1.740;2022-09-27T13:20:31;98357.28;;;10.89;100.00
51452;BME280;37521;52.020;-1.740;2022-09-27T13:23:50;98372.63;;;10.24;100.00
51452;BME280;37521;52.020;-1.740;2022-09-27T13:29:21;98382.31;;;9.47;100.00
51452;BME280;37521;52.020;-1.740;2022-09-27T13:32:13;98387.56;;;9.21;100.00
51452;BME280;37521;52.020;-1.740;2022-09-27T13:35:17;98381.63;;;9.05;100.00
51452;BME280;37521;52.020;-1.740;2022-09-27T13:37:53;98394.63;;;8.94;100.00
51452;BME280;37521;52.020;-1.740;2022-09-27T13:40:34;98384.06;;;8.81;100.00
51452;BME280;37521;52.020;-1.740;2022-09-27T13:43:36;98392.97;;;8.66;100.00
51452;BME280;37521;52.020;-1.740;2022-09-27T13:46:24;98393.47;;;8.58;100.00
51452;BME280;37521;52.020;-1.740;2022-09-27T13:48:58;98393.00;;;8.52;100.00
51452;BME280;37521;52.020;-1.740;2022-09-27T13:51:50;98380.72;;;8.38;100.00